createdAt,value
2022-09-01T00:01:57.029Z,1.13
2022-09-01T00:05:02.371Z,0.93
2022-09-01T00:08:06.863Z,1.27
2022-09-01T00:11:11.242Z,0.85
2022-09-01T00:14:29.810Z,1.77
2022-09-01T00:17:35.693Z,0.70
2022-09-01T00:20:40.531Z,1.25
2022-09-01T00:23:45.198Z,6.07
2022-09-01T00:26:50.880Z,2.03
2022-09-01T00:29:55.402Z,3.40
2022-09-01T00:33:00.022Z,1.45
2022-09-01T00:36:05.671Z,3.03
2022-09-01T00:39:10.490Z,1.70
2022-09-01T00:42:15.121Z,0.90
2022-09-01T00:45:21.696Z,0.80
2022-09-01T00:48:27.647Z,1.75
2022-09-01T00:51:36.838Z,1.10
2022-09-01T00:54:47.701Z,0.98
2022-09-01T00:57:52.046Z,1.20
2022-09-01T01:00:56.622Z,1.73
2022-09-01T01:04:02.697Z,1.10
2022-09-01T01:07:09.546Z,5.18
2022-09-01T01:10:17.116Z,1.13
2022-09-01T01:13:22.015Z,1.50
2022-09-01T01:16:29.526Z,1.17
2022-09-01T01:20:08.895Z,1.85
2022-09-01T01:23:37.168Z,1.65
2022-09-01T01:26:42.485Z,1.98
2022-09-01T01:29:47.726Z,1.60
2022-09-01T01:32:52.842Z,1.77
2022-09-01T01:35:58.128Z,4.32
2022-09-01T01:39:08.486Z,1.52
2022-09-01T01:42:13.386Z,1.50
2022-09-01T01:45:22.784Z,2.30
2022-09-01T01:48:28.396Z,2.17
2022-09-01T01:51:33.058Z,2.63
2022-09-01T01:54:38.959Z,4.03
2022-09-01T01:57:48.871Z,2.15
2022-09-01T02:00:55.821Z,1.35
2022-09-01T02:04:01.346Z,1.60
2022-09-01T02:07:10.674Z,1.50
2022-09-01T02:10:15.101Z,2.17
2022-09-01T02:13:26.653Z,2.47
2022-09-01T02:16:32.874Z,3.38
2022-09-01T02:19:42.209Z,3.35
2022-09-01T02:22:46.537Z,4.47
2022-09-01T02:29:26.524Z,2.33
2022-09-01T02:32:31.044Z,2.17
2022-09-01T02:35:38.527Z,2.42
2022-09-01T02:38:46.841Z,6.75
2022-09-01T02:41:58.550Z,4.07
2022-09-01T02:45:03.799Z,2.75
2022-09-01T02:48:09.818Z,3.25
2022-09-01T02:51:20.042Z,2.40
2022-09-01T02:54:25.647Z,4.50
2022-09-01T02:57:34.470Z,3.22
2022-09-01T03:00:40.782Z,3.42
2022-09-01T03:03:45.407Z,4.00
2022-09-01T03:06:54.932Z,6.10
2022-09-01T03:09:59.290Z,2.25
2022-09-01T03:13:11.347Z,2.20
2022-09-01T03:16:16.308Z,3.75
2022-09-01T03:19:20.924Z,3.40
2022-09-01T03:22:25.327Z,2.78
2022-09-01T03:25:30.122Z,2.85
2022-09-01T03:28:34.755Z,2.88
2022-09-01T03:31:39.257Z,3.55
2022-09-01T03:34:43.967Z,3.45
2022-09-01T03:37:48.371Z,4.00
2022-09-01T03:40:59.075Z,2.83
2022-09-01T03:44:03.749Z,4.75
2022-09-01T03:47:11.068Z,3.55
2022-09-01T03:50:21.139Z,3.50
2022-09-01T03:53:27.430Z,2.50
2022-09-01T03:56:32.111Z,2.78
2022-09-01T03:59:43.333Z,2.05
2022-09-01T04:02:56.187Z,2.80
2022-09-01T04:06:02.582Z,3.58
2022-09-01T04:09:07.216Z,3.72
2022-09-01T04:12:13.765Z,6.43
2022-09-01T04:15:18.929Z,7.20
2022-09-01T04:18:24.715Z,4.88
2022-09-01T04:21:30.472Z,8.50
2022-09-01T04:24:35.279Z,4.90
2022-09-01T04:27:40.865Z,6.25
2022-09-01T04:30:47.254Z,6.95
2022-09-01T04:33:58.359Z,6.03
2022-09-01T04:37:09.292Z,5.85
2022-09-01T04:40:14.978Z,4.75
2022-09-01T04:43:19.573Z,5.85
2022-09-01T04:46:31.386Z,4.57
2022-09-01T04:49:37.567Z,4.47
2022-09-01T04:52:43.439Z,4.65
2022-09-01T04:55:50.021Z,6.03
2022-09-01T04:58:55.887Z,3.70
2022-09-01T05:02:01.377Z,4.47
2022-09-01T05:05:10.248Z,4.90
2022-09-01T05:08:24.266Z,4.63
2022-09-01T05:14:34.040Z,6.70
2022-09-01T05:17:38.586Z,6.38
2022-09-01T05:20:43.784Z,8.00
2022-09-01T05:23:50.574Z,6.20
2022-09-01T05:26:55.029Z,6.90
2022-09-01T05:30:01.242Z,6.50
2022-09-01T05:33:11.013Z,15.50
2022-09-01T05:36:19.452Z,16.20
2022-09-01T05:39:25.736Z,24.10
2022-09-01T05:42:30.423Z,19.25
2022-09-01T05:46:03.022Z,10.02
2022-09-01T05:49:01.987Z,6.75
2022-09-01T05:52:09.240Z,10.27
2022-09-01T05:55:15.302Z,5.70
2022-09-01T05:58:21.707Z,7.32
2022-09-01T06:01:31.085Z,12.98
2022-09-01T06:04:40.743Z,25.73
2022-09-01T06:07:45.227Z,30.20
2022-09-01T06:10:50.422Z,30.75
2022-09-01T06:13:56.068Z,16.92
2022-09-01T06:17:00.941Z,22.75
2022-09-01T06:20:10.836Z,14.15
2022-09-01T06:23:17.923Z,10.77
2022-09-01T06:26:30.077Z,14.55
2022-09-01T06:29:34.459Z,16.95
2022-09-01T06:32:38.760Z,6.43
2022-09-01T06:35:47.224Z,6.50
2022-09-01T06:38:54.065Z,11.40
2022-09-01T06:42:04.760Z,6.97
2022-09-01T06:45:11.849Z,7.35
2022-09-01T06:48:17.959Z,11.65
2022-09-01T06:51:23.311Z,9.15
2022-09-01T06:54:34.352Z,3.60
2022-09-01T07:01:15.982Z,7.20
2022-09-01T07:04:22.176Z,5.03
2022-09-01T07:14:23.517Z,3.30
2022-09-01T07:17:30.617Z,2.22
2022-09-01T07:21:02.703Z,3.03
2022-09-01T07:24:08.709Z,2.10
2022-09-01T07:27:15.942Z,4.32
2022-09-01T07:30:25.061Z,1.30
2022-09-01T07:33:51.673Z,2.00
2022-09-01T07:43:49.576Z,2.03
2022-09-01T07:50:40.200Z,2.58
2022-09-01T07:53:45.260Z,0.85
2022-09-01T07:56:50.401Z,1.75
2022-09-01T07:59:55.915Z,3.28
2022-09-01T08:03:00.575Z,1.13
2022-09-01T08:06:12.713Z,1.40
2022-09-01T08:09:32.786Z,1.30
2022-09-01T08:19:16.393Z,1.90
2022-09-01T08:22:24.229Z,1.30
2022-09-01T08:25:28.890Z,3.88
2022-09-01T08:28:33.794Z,1.60
2022-09-01T08:31:38.327Z,1.88
2022-09-01T08:34:43.645Z,1.17
2022-09-01T08:37:48.235Z,0.88
2022-09-01T08:40:57.628Z,3.78
2022-09-01T08:44:52.727Z,1.95
2022-09-01T08:51:50.598Z,1.63
2022-09-01T08:55:05.565Z,0.80
2022-09-01T08:58:15.413Z,1.20
2022-09-01T09:01:35.348Z,1.15
2022-09-01T09:05:01.672Z,0.88
2022-09-01T09:08:44.164Z,1.65
2022-09-01T09:12:49.040Z,4.65
2022-09-01T09:16:08.609Z,0.70
2022-09-01T09:19:34.032Z,0.70
2022-09-01T09:22:41.049Z,0.32
2022-09-01T09:25:45.836Z,2.08
2022-09-01T09:28:50.936Z,2.50
2022-09-01T09:32:22.506Z,2.00
2022-09-01T09:35:47.284Z,0.57
2022-09-01T09:39:19.176Z,2.90
2022-09-01T09:42:24.033Z,2.10
2022-09-01T09:45:37.967Z,0.88
2022-09-01T09:48:43.386Z,0.77
2022-09-01T09:51:53.572Z,0.88
2022-09-01T09:55:22.945Z,0.47
2022-09-01T09:58:42.906Z,1.33
2022-09-01T10:01:53.321Z,1.67
2022-09-01T10:04:58.979Z,0.57
2022-09-01T10:08:25.197Z,0.40
2022-09-01T10:11:41.738Z,0.47
2022-09-01T10:14:54.293Z,2.53
2022-09-01T10:18:20.677Z,5.90
2022-09-01T10:21:38.985Z,1.25
2022-09-01T10:24:45.795Z,0.60
2022-09-01T10:28:01.881Z,1.20
2022-09-01T10:31:09.206Z,2.35
2022-09-01T10:34:19.640Z,1.20
2022-09-01T10:37:27.659Z,0.88
2022-09-01T10:40:43.253Z,1.17
2022-09-01T10:43:50.512Z,0.80
2022-09-01T10:46:59.909Z,1.17
2022-09-01T10:50:35.399Z,0.80
2022-09-01T10:53:54.736Z,0.88
2022-09-01T10:57:08.798Z,0.70
2022-09-01T11:00:37.248Z,2.00
2022-09-01T11:03:56.444Z,0.47
2022-09-01T11:07:13.948Z,0.38
2022-09-01T11:10:51.851Z,2.38
2022-09-01T11:13:59.070Z,3.45
2022-09-01T11:17:25.834Z,4.25
2022-09-01T11:20:34.962Z,0.75
2022-09-01T11:23:41.312Z,2.25
2022-09-01T11:26:48.997Z,1.08
2022-09-01T11:30:01.871Z,0.43
2022-09-01T11:33:24.570Z,2.35
2022-09-01T11:36:48.316Z,1.00
2022-09-01T11:40:02.260Z,0.50
2022-09-01T11:43:16.835Z,1.50
2022-09-01T11:46:32.729Z,0.73
2022-09-01T11:49:46.628Z,0.70
2022-09-01T11:53:04.090Z,0.20
2022-09-01T11:56:18.472Z,1.10
2022-09-01T11:59:38.088Z,1.33
2022-09-01T12:02:51.862Z,3.70
2022-09-01T12:06:02.791Z,1.77
2022-09-01T12:09:07.420Z,3.30
2022-09-01T12:12:35.805Z,1.52
2022-09-01T12:16:07.074Z,0.93
2022-09-01T12:19:23.560Z,0.65
2022-09-01T12:22:28.137Z,1.23
2022-09-01T12:25:35.356Z,0.90
2022-09-01T12:28:41.771Z,2.15
2022-09-01T12:31:50.495Z,0.50
2022-09-01T12:35:11.045Z,0.40
2022-09-01T12:38:20.292Z,0.60
2022-09-01T12:41:36.652Z,1.42
2022-09-01T12:44:44.629Z,1.40
2022-09-01T12:47:51.475Z,1.15
2022-09-01T12:50:59.700Z,1.00
2022-09-01T12:54:04.961Z,3.63
2022-09-01T12:57:10.467Z,1.35
2022-09-01T13:00:23.289Z,0.93
2022-09-01T13:03:29.601Z,4.68
2022-09-01T13:06:34.183Z,2.75
2022-09-01T13:09:38.671Z,3.92
2022-09-01T13:12:44.764Z,0.90
2022-09-01T13:15:53.433Z,0.55
2022-09-01T13:19:17.961Z,1.40
2022-09-01T13:22:22.706Z,1.92
2022-09-01T13:25:27.240Z,3.92
2022-09-01T13:28:32.148Z,0.43
2022-09-01T13:31:36.684Z,2.03
2022-09-01T13:34:41.877Z,0.88
2022-09-01T13:37:47.440Z,0.38
2022-09-01T13:40:52.904Z,1.25
2022-09-01T13:43:57.877Z,1.35
2022-09-01T13:47:28.635Z,0.90
2022-09-01T13:51:12.984Z,5.90
2022-09-01T13:53:52.884Z,0.40
2022-09-01T13:56:57.486Z,1.15
2022-09-01T14:00:01.814Z,2.47
2022-09-01T14:03:18.068Z,1.17
2022-09-01T14:06:22.579Z,0.40
2022-09-01T14:09:27.080Z,1.50
2022-09-01T14:12:32.632Z,1.10
2022-09-01T14:15:37.495Z,2.53
2022-09-01T14:18:42.909Z,3.15
2022-09-01T14:21:47.422Z,2.42
2022-09-01T14:24:52.781Z,6.78
2022-09-01T14:27:57.255Z,2.83
2022-09-01T14:31:05.754Z,2.28
2022-09-01T14:34:12.329Z,0.40
2022-09-01T14:37:16.634Z,0.40
2022-09-01T14:40:24.257Z,2.03
2022-09-01T14:43:31.810Z,0.70
2022-09-01T14:46:37.165Z,2.10
2022-09-01T14:49:41.756Z,2.90
2022-09-01T14:52:47.210Z,0.75
2022-09-01T14:55:55.541Z,1.10
2022-09-01T14:59:02.185Z,4.13
2022-09-01T15:02:06.510Z,7.38
2022-09-01T15:05:12.808Z,4.32
2022-09-01T15:08:17.945Z,1.05
2022-09-01T15:11:22.503Z,4.10
2022-09-01T15:14:27.286Z,1.92
2022-09-01T15:17:31.988Z,1.15
2022-09-01T15:20:46.316Z,2.17
2022-09-01T15:23:51.361Z,0.90
2022-09-01T15:26:56.560Z,1.23
2022-09-01T15:30:01.090Z,1.38
2022-09-01T15:33:12.044Z,3.55
2022-09-01T15:36:25.863Z,3.67
2022-09-01T15:39:37.549Z,1.08
2022-09-01T15:42:42.757Z,1.85
2022-09-01T15:45:47.487Z,3.17
2022-09-01T15:48:52.143Z,0.85
2022-09-01T15:51:57.615Z,0.90
2022-09-01T15:55:03.659Z,0.52
2022-09-01T15:58:10.699Z,3.65
2022-09-01T16:01:16.089Z,1.10
2022-09-01T16:04:25.407Z,2.60
2022-09-01T16:07:32.208Z,1.27
2022-09-01T16:10:40.059Z,3.10
2022-09-01T16:13:44.879Z,0.35
2022-09-01T16:17:17.704Z,0.63
2022-09-01T16:20:35.669Z,0.77
2022-09-01T16:23:49.138Z,1.55
2022-09-01T16:26:55.910Z,2.75
2022-09-01T16:30:16.758Z,0.80
2022-09-01T16:33:21.315Z,0.70
2022-09-01T16:37:19.920Z,0.30
2022-09-01T16:40:56.491Z,1.02
2022-09-01T16:44:29.724Z,0.65
2022-09-01T16:48:08.828Z,0.55
2022-09-01T16:51:39.071Z,1.30
2022-09-01T16:55:25.637Z,0.57
2022-09-01T16:58:52.300Z,1.27
2022-09-01T17:02:23.187Z,0.95
2022-09-01T17:05:56.263Z,8.07
2022-09-01T17:09:20.954Z,6.53
2022-09-01T17:16:15.699Z,2.70
2022-09-01T17:19:22.200Z,2.63
2022-09-01T17:22:27.960Z,2.83
2022-09-01T17:25:41.189Z,4.72
2022-09-01T17:29:26.170Z,2.58
2022-09-01T17:36:14.036Z,1.70
2022-09-01T17:39:36.472Z,5.53
2022-09-01T17:42:56.217Z,0.73
2022-09-01T17:46:16.674Z,3.75
2022-09-01T17:49:29.861Z,2.88
2022-09-01T17:53:31.520Z,0.60
2022-09-01T17:57:14.863Z,1.88
2022-09-01T18:00:34.805Z,0.40
2022-09-01T18:04:41.704Z,2.65
2022-09-01T18:08:30.379Z,4.53
2022-09-01T18:11:52.116Z,3.08
2022-09-01T18:15:08.887Z,8.75
2022-09-01T18:18:36.836Z,7.35
2022-09-01T18:21:55.362Z,6.13
2022-09-01T18:25:23.364Z,4.25
2022-09-01T18:28:27.834Z,12.45
2022-09-01T18:32:00.025Z,3.38
2022-09-01T18:35:22.578Z,4.97
2022-09-01T18:38:51.561Z,2.83
2022-09-01T18:42:29.491Z,2.58
2022-09-01T18:45:44.942Z,2.10
2022-09-01T18:49:23.807Z,0.88
2022-09-01T18:53:08.810Z,1.55
2022-09-01T18:59:53.546Z,4.82
2022-09-01T19:03:32.485Z,1.02
2022-09-01T19:06:40.478Z,5.80
2022-09-01T19:10:18.626Z,0.60
2022-09-01T19:13:54.904Z,0.82
2022-09-01T19:17:32.713Z,1.00
2022-09-01T19:20:52.730Z,1.13
2022-09-01T19:24:05.869Z,2.25
2022-09-01T19:27:21.635Z,4.78
2022-09-01T19:30:26.400Z,9.10
2022-09-01T19:33:38.239Z,15.00
2022-09-01T19:36:47.104Z,5.93
2022-09-01T19:39:54.381Z,5.35
2022-09-01T19:43:17.943Z,3.33
2022-09-01T19:46:41.202Z,1.77
2022-09-01T19:50:10.534Z,2.05
2022-09-01T19:54:27.788Z,2.97
2022-09-01T19:58:03.318Z,1.50
2022-09-01T20:01:14.179Z,1.40
2022-09-01T20:04:37.031Z,0.60
2022-09-01T20:07:51.160Z,3.08
2022-09-01T20:11:14.716Z,1.17
2022-09-01T20:14:43.786Z,0.95
2022-09-01T20:18:08.955Z,4.28
2022-09-01T20:21:18.827Z,1.20
2022-09-01T20:24:39.841Z,1.58
2022-09-01T20:27:58.676Z,2.08
2022-09-01T20:31:12.199Z,1.05
2022-09-01T20:34:55.252Z,4.07
2022-09-01T20:38:46.012Z,0.70
2022-09-01T20:42:20.654Z,0.63
2022-09-01T20:45:28.525Z,2.53
2022-09-01T20:48:40.293Z,1.20
2022-09-01T20:52:08.198Z,1.58
2022-09-01T20:55:30.182Z,0.93
2022-09-01T20:58:45.128Z,2.72
2022-09-01T21:02:02.718Z,2.75
2022-09-01T21:05:28.779Z,0.90
2022-09-01T21:09:03.068Z,3.42
2022-09-01T21:12:20.470Z,2.30
2022-09-01T21:16:14.125Z,2.03
2022-09-01T21:19:53.541Z,2.53
2022-09-01T21:22:58.531Z,1.98
2022-09-01T21:26:03.617Z,0.80
2022-09-01T21:29:45.126Z,1.85
2022-09-01T21:32:52.668Z,1.02
2022-09-01T21:35:58.930Z,1.38
2022-09-01T21:39:03.766Z,0.75
2022-09-01T21:42:12.266Z,0.73
2022-09-01T21:45:19.092Z,2.78
2022-09-01T21:48:24.567Z,1.02
2022-09-01T21:51:29.164Z,0.70
2022-09-01T21:54:34.834Z,0.60
2022-09-01T21:57:39.256Z,0.98
2022-09-01T22:00:44.904Z,2.15
2022-09-01T22:03:49.299Z,2.08
2022-09-01T22:06:54.009Z,1.55
2022-09-01T22:09:58.700Z,0.70
2022-09-01T22:13:03.749Z,1.95
2022-09-01T22:16:08.227Z,1.70
2022-09-01T22:19:12.990Z,0.70
2022-09-01T22:22:17.745Z,2.28
2022-09-01T22:25:23.971Z,2.58
2022-09-01T22:28:28.753Z,1.25
2022-09-01T22:31:38.312Z,1.00
2022-09-01T22:34:43.679Z,0.63
2022-09-01T22:37:48.945Z,2.47
2022-09-01T22:40:57.320Z,1.23
2022-09-01T22:44:03.242Z,0.65
2022-09-01T22:47:07.517Z,1.05
2022-09-01T22:50:12.460Z,1.23
2022-09-01T22:53:20.866Z,1.25
2022-09-01T22:56:30.270Z,0.80
2022-09-01T22:59:35.271Z,2.42
2022-09-01T23:02:39.746Z,2.88
2022-09-01T23:05:44.894Z,1.42
2022-09-01T23:08:49.924Z,1.48
2022-09-01T23:11:54.506Z,0.95
2022-09-01T23:14:58.849Z,0.85
2022-09-01T23:18:03.282Z,0.93
2022-09-01T23:21:10.668Z,0.80
2022-09-01T23:24:16.272Z,1.17
2022-09-01T23:27:24.516Z,1.95
2022-09-01T23:30:29.031Z,1.65
2022-09-01T23:33:33.451Z,1.77
2022-09-01T23:36:37.870Z,3.05
2022-09-01T23:39:42.473Z,0.77
2022-09-01T23:42:47.166Z,2.50
2022-09-01T23:45:56.566Z,1.38
2022-09-01T23:49:02.994Z,2.05
2022-09-01T23:52:08.158Z,1.00
2022-09-01T23:55:13.357Z,1.00
2022-09-01T23:58:19.500Z,1.58
